Time;durP1;ratioP1;P1;durP2;ratioP2;P2;SDS_P1;SDS_P2;PMS_P1;PMS_P2;Temp;Humidity;BMP_temperature;BMP_pressure;BME280_temperature;BME280_humidity;BME280_pressure;Samples;Min_cycle;Max_cycle;Signal;HPM_P1;HPM_P2
2023/12/28 00:02:05;;;;;;;9.35;1.25;;;;;;;8.82;80.72;98381.03;4998867;28;20495;-48
2023/12/28 00:04:34;;;;;;;9.95;0.63;;;;;;;8.82;80.68;98375.88;4998365;28;20514;-46
2023/12/28 00:07:02;;;;;;;6.05;1.67;;;;;;;8.76;81.91;98386.31;5004277;28;20053;-52
2023/12/28 00:09:29;;;;;;;8.55;0.88;;;;;;;8.79;81.78;98378.53;4987851;28;20133;-51
2023/12/28 00:11:56;;;;;;;7.97;1.08;;;;;;;8.71;81.70;98361.47;4998970;28;20054;-48
2023/12/28 00:14:22;;;;;;;8.93;1.35;;;;;;;8.76;81.70;98396.66;5002709;28;20400;-53
2023/12/28 00:16:49;;;;;;;4.00;1.40;;;;;;;8.70;82.08;98367.53;4999789;28;20745;-55
2023/12/28 00:19:16;;;;;;;14.20;1.33;;;;;;;8.73;81.83;98382.94;5002486;28;20058;-47
2023/12/28 00:21:43;;;;;;;10.90;1.35;;;;;;;8.71;82.15;98419.97;4999993;28;20543;-48
2023/12/28 00:24:09;;;;;;;7.70;1.30;;;;;;;8.78;81.68;98393.16;5001131;28;20061;-52
2023/12/28 00:26:36;;;;;;;12.38;1.92;;;;;;;8.79;81.58;98396.59;4996090;28;20038;-52
2023/12/28 00:29:02;;;;;;;7.90;1.63;;;;;;;8.74;81.58;98389.81;4998141;28;20053;-50
2023/12/28 00:31:30;;;;;;;5.28;1.17;;;;;;;8.69;81.37;98386.47;4994496;28;20058;-50
2023/12/28 00:33:58;;;;;;;8.07;1.30;;;;;;;8.70;81.18;98385.59;4996342;28;20041;-47
2023/12/28 00:36:25;;;;;;;10.35;1.20;;;;;;;8.72;81.12;98385.56;5001369;28;20089;-53
2023/12/28 00:38:52;;;;;;;9.13;1.30;;;;;;;8.67;81.08;98403.72;5002750;28;20085;-52
2023/12/28 00:41:19;;;;;;;10.20;1.52;;;;;;;8.61;80.63;98388.34;4997094;28;20508;-50
2023/12/28 00:43:45;;;;;;;11.70;1.42;;;;;;;8.67;80.93;98388.22;5001853;28;20048;-48
2023/12/28 00:46:12;;;;;;;3.58;0.70;;;;;;;8.71;80.73;98401.91;4997570;28;20127;-51
2023/12/28 00:48:38;;;;;;;10.43;1.70;;;;;;;8.82;80.61;98406.84;4995830;28;20058;-48
2023/12/28 00:51:05;;;;;;;5.05;1.30;;;;;;;8.78;80.88;98400.88;5001113;28;20124;-50
2023/12/28 00:53:32;;;;;;;4.72;1.30;;;;;;;8.78;80.63;98405.22;4996509;28;20050;-53
2023/12/28 00:55:59;;;;;;;11.55;1.88;;;;;;;8.78;80.78;98406.06;4992953;28;20524;-49
2023/12/28 00:58:25;;;;;;;9.55;1.13;;;;;;;8.69;80.70;98409.72;4996406;28;20049;-50
2023/12/28 01:00:55;;;;;;;8.98;0.93;;;;;;;8.64;80.93;98414.09;4991091;28;20054;-51
2023/12/28 01:03:23;;;;;;;3.58;0.82;;;;;;;8.58;80.91;98399.59;4997339;28;20080;-50
2023/12/28 01:05:52;;;;;;;9.35;1.75;;;;;;;8.59;80.55;98396.16;4995359;28;20546;-48
2023/12/28 01:08:18;;;;;;;13.02;1.40;;;;;;;8.60;80.78;98391.81;4990595;28;20510;-51
2023/12/28 01:10:45;;;;;;;8.40;1.00;;;;;;;8.60;80.33;98407.31;4991605;28;20083;-47
2023/12/28 01:13:12;;;;;;;14.07;1.55;;;;;;;8.60;80.67;98397.84;4993063;28;20465;-51
2023/12/28 01:15:40;;;;;;;9.15;2.03;;;;;;;8.57;80.82;98395.31;4996263;28;20447;-55
2023/12/28 01:18:07;;;;;;;9.50;2.17;;;;;;;8.62;80.53;98395.22;5000276;28;20072;-48
2023/12/28 01:20:37;;;;;;;13.27;1.50;;;;;;;8.60;80.46;98389.25;5003570;28;20051;-49
2023/12/28 01:23:04;;;;;;;13.63;1.58;;;;;;;8.59;80.60;98391.00;5005890;28;20053;-52
2023/12/28 01:25:31;;;;;;;8.60;1.50;;;;;;;8.60;81.03;98407.31;5007227;28;20050;-50
2023/12/28 01:27:59;;;;;;;4.40;0.70;;;;;;;8.65;80.88;98426.13;5004854;28;20546;-49
2023/12/28 01:30:27;;;;;;;6.20;1.02;;;;;;;8.72;80.94;98426.84;5006555;28;20057;-51
2023/12/28 01:32:54;;;;;;;7.78;1.77;;;;;;;8.77;80.96;98419.00;5005234;28;20132;-53
2023/12/28 01:35:23;;;;;;;11.38;1.27;;;;;;;8.86;80.46;98437.72;5003230;28;20143;-53
2023/12/28 01:37:51;;;;;;;9.18;1.10;;;;;;;8.79;81.00;98428.44;5004685;28;20069;-47
2023/12/28 01:40:18;;;;;;;8.32;1.42;;;;;;;8.81;80.75;98418.06;5008045;28;20056;-50
2023/12/28 01:42:45;;;;;;;9.88;1.50;;;;;;;8.91;80.50;98414.38;5000586;28;20061;-49
2023/12/28 01:45:12;;;;;;;8.90;1.92;;;;;;;8.93;80.47;98414.34;4997438;28;20096;-48
2023/12/28 01:47:40;;;;;;;15.05;2.20;;;;;;;8.90;80.78;98414.41;4999619;28;20050;-47
2023/12/28 01:50:09;;;;;;;11.27;2.15;;;;;;;8.98;80.63;98418.53;5004362;28;20058;-48
2023/12/28 01:52:37;;;;;;;10.90;1.60;;;;;;;8.94;80.47;98410.88;5003537;28;20052;-51
2023/12/28 01:55:07;;;;;;;9.25;1.40;;;;;;;8.91;80.45;98435.03;5001390;28;20465;-49
2023/12/28 01:57:34;;;;;;;9.60;2.00;;;;;;;8.97;80.53;98409.09;5004577;28;20042;-49
2023/12/28 02:00:03;;;;;;;12.02;1.77;;;;;;;8.97;80.67;98428.91;5003501;28;20133;-52
2023/12/28 02:02:32;;;;;;;6.88;1.27;;;;;;;8.99;80.23;98416.81;4997474;28;20116;-48
2023/12/28 02:05:00;;;;;;;8.77;1.33;;;;;;;8.97;80.28;98429.75;5002096;28;20053;-51
2023/12/28 02:07:29;;;;;;;12.07;1.63;;;;;;;9.03;80.69;98425.31;5000339;28;20050;-49
2023/12/28 02:09:56;;;;;;;9.55;1.35;;;;;;;9.06;80.29;98433.88;5008359;28;20045;-53
2023/12/28 02:12:24;;;;;;;11.68;1.88;;;;;;;9.12;79.86;98432.88;5001480;28;20137;-46
2023/12/28 02:14:52;;;;;;;6.70;1.92;;;;;;;9.15;79.97;98440.53;5006932;28;20052;-46
2023/12/28 02:17:28;;;;;;;9.52;1.42;;;;;;;9.16;80.20;98437.09;5000932;28;20063;-47
2023/12/28 02:19:56;;;;;;;19.30;1.52;;;;;;;9.22;79.53;98430.94;4999921;28;20100;-47
2023/12/28 02:22:26;;;;;;;6.25;1.33;;;;;;;9.24;79.42;98422.25;4997480;28;20053;-48
2023/12/28 02:27:52;;;;;;;10.93;1.60;;;;;;;9.23;79.06;98425.69;5023332;28;20399;-53
2023/12/28 02:30:24;;;;;;;16.33;1.88;;;;;;;9.30;79.50;98428.16;5016443;28;20080;-52
2023/12/28 02:35:45;;;;;;;14.80;2.20;;;;;;;9.32;78.49;98441.91;5029939;27;20398;-53
2023/12/28 02:38:15;;;;;;;13.68;2.80;;;;;;;9.37;78.19;98447.78;5017848;28;20053;-50
2023/12/28 02:40:43;;;;;;;12.90;2.78;;;;;;;9.37;78.64;98451.25;5015471;28;20748;-47
2023/12/28 02:43:12;;;;;;;10.23;1.90;;;;;;;9.40;78.26;98439.97;5019764;28;20414;-51
2023/12/28 02:45:40;;;;;;;8.93;2.58;;;;;;;9.40;78.19;98458.06;5017976;28;20046;-48
2023/12/28 02:48:07;;;;;;;10.70;4.18;;;;;;;9.32;77.82;98457.41;5025504;28;20069;-53
2023/12/28 02:50:36;;;;;;;10.13;1.90;;;;;;;9.39;77.98;98461.50;5021988;28;20049;-52
2023/12/28 02:53:04;;;;;;;9.85;2.40;;;;;;;9.42;76.87;98458.88;5014846;28;20146;-47
2023/12/28 02:55:30;;;;;;;11.75;2.30;;;;;;;9.37;77.11;98473.63;5016705;28;20062;-53
2023/12/28 02:57:59;;;;;;;12.23;2.67;;;;;;;9.38;77.10;98446.91;5016689;28;20050;-49
2023/12/28 03:00:27;;;;;;;8.70;3.63;;;;;;;9.38;77.03;98452.06;5018963;28;20137;-51
2023/12/28 03:02:54;;;;;;;8.70;2.55;;;;;;;9.33;76.96;98456.50;5018946;28;20049;-48
2023/12/28 03:05:22;;;;;;;15.23;3.13;;;;;;;9.29;76.74;98431.63;5018913;28;20081;-49
2023/12/28 03:07:49;;;;;;;18.17;2.75;;;;;;;9.36;76.49;98469.38;5014462;28;20429;-50
2023/12/28 03:10:16;;;;;;;21.13;2.80;;;;;;;9.32;77.28;98465.16;5007995;28;20041;-48
2023/12/28 03:12:43;;;;;;;11.68;2.08;;;;;;;9.29;76.95;98463.47;5024657;28;20068;-48
2023/12/28 03:15:10;;;;;;;14.02;2.97;;;;;;;9.32;76.75;98455.66;5019010;28;20106;-48
2023/12/28 03:17:36;;;;;;;12.90;3.20;;;;;;;9.28;76.85;98466.94;5014971;28;20080;-48
2023/12/28 03:20:06;;;;;;;12.45;2.53;;;;;;;9.34;76.83;98471.13;5017037;28;20049;-51
2023/12/28 03:22:32;;;;;;;13.18;3.38;;;;;;;9.29;77.10;98475.56;5020854;28;20053;-47
2023/12/28 03:24:59;;;;;;;17.23;3.33;;;;;;;9.25;76.76;98491.13;5018618;28;20523;-49
2023/12/28 03:27:26;;;;;;;17.83;3.00;;;;;;;9.30;76.72;98490.16;5020870;28;20065;-49
2023/12/28 03:29:53;;;;;;;9.63;2.45;;;;;;;9.26;77.25;98485.06;5018452;28;20045;-48
2023/12/28 03:32:19;;;;;;;10.68;2.50;;;;;;;9.24;76.67;98492.00;5017384;28;20060;-46
2023/12/28 03:34:46;;;;;;;14.75;2.47;;;;;;;9.29;77.15;98502.22;5017093;28;20045;-50
2023/12/28 03:37:13;;;;;;;13.48;3.22;;;;;;;9.25;77.33;98509.19;5020462;28;20132;-49
2023/12/28 03:39:40;;;;;;;12.40;2.33;;;;;;;9.20;76.97;98511.06;5017673;28;20057;-48
2023/12/28 03:42:08;;;;;;;5.00;1.88;;;;;;;9.21;77.76;98511.88;5011424;28;20055;-48
2023/12/28 03:44:35;;;;;;;10.30;2.80;;;;;;;9.22;77.73;98511.84;5020035;28;20049;-51
2023/12/28 03:47:01;;;;;;;13.68;3.05;;;;;;;9.22;77.71;98517.00;5004932;28;20049;-49
2023/12/28 03:49:30;;;;;;;19.73;2.47;;;;;;;9.22;77.73;98524.75;5001138;28;20046;-46
2023/12/28 03:51:57;;;;;;;11.20;2.53;;;;;;;9.15;77.90;98515.44;5003588;28;21256;-52
2023/12/28 03:54:24;;;;;;;12.57;2.25;;;;;;;9.18;77.63;98543.78;5006722;28;20081;-52
2023/12/28 03:56:51;;;;;;;12.52;2.33;;;;;;;9.20;77.61;98536.88;5006013;28;20060;-49
2023/12/28 03:59:17;;;;;;;11.27;2.20;;;;;;;9.21;78.00;98559.25;5004423;28;20061;-50
2023/12/28 04:01:44;;;;;;;7.32;3.25;;;;;;;9.20;77.80;98552.38;5005060;28;20057;-49
2023/12/28 04:04:11;;;;;;;13.43;2.53;;;;;;;9.24;77.73;98561.75;5003163;28;20042;-49
2023/12/28 04:06:38;;;;;;;11.45;2.33;;;;;;;9.21;77.94;98558.38;5004927;28;20046;-51
2023/12/28 04:09:05;;;;;;;16.25;3.30;;;;;;;9.25;77.51;98571.22;5003751;28;20124;-52
2023/12/28 04:11:32;;;;;;;19.73;3.35;;;;;;;9.24;77.86;98561.75;5000369;28;21344;-49
2023/12/28 04:14:00;;;;;;;10.13;2.58;;;;;;;9.18;77.80;98553.31;5004894;28;20053;-48
2023/12/28 04:16:28;;;;;;;7.63;2.25;;;;;;;9.20;77.21;98562.72;5001630;28;20518;-51
2023/12/28 04:18:57;;;;;;;7.72;3.03;;;;;;;9.28;77.07;98556.53;5003780;28;20058;-49
2023/12/28 04:21:23;;;;;;;12.43;2.58;;;;;;;9.32;76.59;98568.50;5007761;28;20054;-50
2023/12/28 04:23:50;;;;;;;8.98;2.92;;;;;;;9.34;77.26;98569.31;5002030;28;20045;-50
2023/12/28 04:26:20;;;;;;;8.50;1.83;;;;;;;9.36;77.13;98583.06;5009320;28;20068;-50
2023/12/28 04:28:47;;;;;;;9.80;2.63;;;;;;;9.31;77.40;98590.03;4999889;28;20068;-52
2023/12/28 04:31:13;;;;;;;19.30;3.33;;;;;;;9.31;77.34;98600.38;4997071;28;20054;-51
2023/12/28 04:33:41;;;;;;;20.23;2.47;;;;;;;9.35;77.57;98599.41;5002598;28;20045;-50
2023/12/28 04:36:07;;;;;;;13.23;3.70;;;;;;;9.35;77.13;98596.84;5001600;28;20112;-51
2023/12/28 04:38:34;;;;;;;10.23;2.50;;;;;;;9.38;77.52;98604.53;5003638;28;20083;-44
2023/12/28 04:41:01;;;;;;;16.05;3.25;;;;;;;9.41;77.95;98607.06;4993746;28;20050;-48
2023/12/28 04:43:28;;;;;;;12.27;2.92;;;;;;;9.41;77.91;98603.59;4998970;28;20133;-50
2023/12/28 04:45:55;;;;;;;9.18;2.10;;;;;;;9.41;78.07;98617.41;5001287;28;20044;-49
2023/12/28 04:48:23;;;;;;;12.48;2.35;;;;;;;9.40;78.05;98618.28;5004996;28;20100;-50
2023/12/28 04:50:52;;;;;;;8.80;2.40;;;;;;;9.41;78.69;98635.47;5004784;28;20052;-50
2023/12/28 04:53:21;;;;;;;11.95;3.13;;;;;;;9.45;78.22;98618.16;5003087;28;20046;-53
2023/12/28 04:55:47;;;;;;;13.75;3.30;;;;;;;9.43;78.84;98631.16;5002123;28;20069;-50
2023/12/28 04:58:14;;;;;;;14.05;2.40;;;;;;;9.43;78.65;98644.06;5007495;28;20082;-48
2023/12/28 05:00:41;;;;;;;18.48;3.53;;;;;;;9.36;79.48;98645.06;5003361;28;20054;-48
2023/12/28 05:03:08;;;;;;;10.05;2.25;;;;;;;9.42;79.44;98642.34;5002823;28;20045;-47
2023/12/28 05:05:35;;;;;;;10.55;3.05;;;;;;;9.36;79.70;98645.06;4998369;28;20053;-45
2023/12/28 05:08:02;;;;;;;9.50;2.10;;;;;;;9.39;79.57;98652.75;4992410;28;20053;-51
2023/12/28 05:10:29;;;;;;;14.30;2.65;;;;;;;9.41;79.88;98653.56;5006093;28;20056;-52
2023/12/28 05:12:55;;;;;;;9.98;2.58;;;;;;;9.44;80.01;98657.81;5003302;28;20144;-52
2023/12/28 05:15:25;;;;;;;12.73;1.65;;;;;;;9.41;79.54;98669.06;5003616;28;20461;-50
2023/12/28 05:17:53;;;;;;;8.43;2.50;;;;;;;9.39;80.45;98665.66;5005625;28;20050;-49
2023/12/28 05:20:20;;;;;;;18.27;3.05;;;;;;;9.35;81.00;98640.75;5001306;28;20049;-53
2023/12/28 05:22:46;;;;;;;12.30;2.58;;;;;;;9.37;80.55;98662.28;4998227;28;20041;-49
2023/12/28 05:25:13;;;;;;;14.30;1.95;;;;;;;9.36;80.93;98639.91;4997831;28;20599;-48
2023/12/28 05:27:42;;;;;;;10.45;2.88;;;;;;;9.29;80.91;98649.50;5000705;28;20163;-49
2023/12/28 05:30:10;;;;;;;7.72;2.47;;;;;;;9.28;81.05;98652.13;4997167;28;20081;-47
2023/12/28 05:32:39;;;;;;;13.52;2.92;;;;;;;9.31;80.31;98657.22;5002670;28;20539;-50
2023/12/28 05:35:07;;;;;;;14.02;3.45;;;;;;;9.32;80.47;98664.09;4985956;28;20051;-54
2023/12/28 05:37:35;;;;;;;8.10;2.80;;;;;;;9.31;80.70;98667.56;4984751;28;20454;-49
2023/12/28 05:40:02;;;;;;;8.32;2.10;;;;;;;9.26;80.70;98671.06;4996304;28;20084;-49
2023/12/28 05:42:29;;;;;;;8.40;2.42;;;;;;;9.20;81.07;98681.56;5001062;28;20218;-47
2023/12/28 05:44:56;;;;;;;6.93;2.08;;;;;;;9.19;80.25;98679.81;4999669;28;20049;-52
2023/12/28 05:47:23;;;;;;;5.60;1.73;;;;;;;9.14;79.71;98686.81;4999387;28;20054;-50
2023/12/28 05:49:51;;;;;;;5.55;1.35;;;;;;;9.08;79.74;98671.44;5000565;28;20072;-47
2023/12/28 05:52:19;;;;;;;5.88;0.93;;;;;;;9.02;79.47;98677.56;5005716;28;20410;-53
2023/12/28 05:54:47;;;;;;;3.45;1.55;;;;;;;9.05;79.71;98666.34;5001969;28;20050;-50
2023/12/28 05:57:15;;;;;;;3.20;0.60;;;;;;;9.04;79.64;98672.38;5004155;28;20666;-47
2023/12/28 05:59:42;;;;;;;3.72;1.65;;;;;;;8.96;79.15;98677.69;5002795;28;20092;-46
2023/12/28 06:02:10;;;;;;;1.77;1.63;;;;;;;9.03;78.52;98693.91;5003984;28;20041;-53
2023/12/28 06:04:36;;;;;;;1.60;1.25;;;;;;;8.99;78.44;98696.53;5002530;28;20037;-54
2023/12/28 06:07:04;;;;;;;1.15;1.05;;;;;;;8.99;78.14;98688.78;5006812;28;20073;-48
2023/12/28 06:09:31;;;;;;;2.97;1.10;;;;;;;8.94;78.80;98695.78;5000405;28;20113;-47
2023/12/28 06:11:58;;;;;;;2.28;0.40;;;;;;;8.95;78.71;98687.16;5002901;28;20414;-51
2023/12/28 06:14:25;;;;;;;1.20;0.93;;;;;;;8.96;78.48;98698.34;5004831;28;20101;-50
2023/12/28 06:16:51;;;;;;;4.20;0.85;;;;;;;8.94;78.60;98708.69;5005977;28;20411;-51
2023/12/28 06:19:18;;;;;;;3.60;1.67;;;;;;;8.97;78.67;98710.38;5004059;28;20452;-50
2023/12/28 06:21:45;;;;;;;5.53;0.98;;;;;;;8.95;78.85;98707.81;5002763;28;20407;-46
2023/12/28 06:24:11;;;;;;;6.82;2.25;;;;;;;8.95;78.95;98702.66;5004676;28;20041;-51
2023/12/28 06:26:40;;;;;;;4.10;2.03;;;;;;;8.91;78.91;98705.34;5003682;28;20045;-50
2023/12/28 06:29:08;;;;;;;7.70;2.40;;;;;;;8.93;78.91;98719.91;5008116;28;20134;-49
2023/12/28 06:31:36;;;;;;;7.63;1.95;;;;;;;8.90;79.41;98713.94;5006037;28;20045;-48
2023/12/28 06:34:04;;;;;;;7.82;2.70;;;;;;;8.88;79.04;98708.78;5004389;28;20041;-52
2023/12/28 06:36:31;;;;;;;4.35;2.33;;;;;;;8.88;79.17;98708.78;4983831;28;20051;-50
2023/12/28 06:39:00;;;;;;;12.40;1.90;;;;;;;8.86;79.60;98703.66;5002504;28;20053;-49
2023/12/28 06:41:26;;;;;;;7.72;2.08;;;;;;;8.90;79.11;98713.94;5000960;28;20043;-49
2023/12/28 06:43:54;;;;;;;9.35;2.40;;;;;;;8.88;79.44;98719.13;5000364;28;20050;-52
2023/12/28 06:46:21;;;;;;;8.70;1.92;;;;;;;8.85;79.45;98720.03;5002313;28;20053;-49
2023/12/28 06:48:48;;;;;;;6.25;3.03;;;;;;;8.87;79.17;98712.25;5001858;28;20517;-50
2023/12/28 06:51:18;;;;;;;11.15;2.55;;;;;;;8.87;79.64;98728.63;5004405;28;20046;-50
2023/12/28 06:53:46;;;;;;;9.52;2.53;;;;;;;8.83;80.34;98723.53;4998036;28;20052;-52
2023/12/28 06:56:13;;;;;;;11.32;2.40;;;;;;;8.89;80.36;98714.81;4999181;28;20046;-53
2023/12/28 06:58:40;;;;;;;11.32;3.42;;;;;;;8.90;79.96;98714.78;5003265;28;20050;-49
2023/12/28 07:01:06;;;;;;;12.43;2.45;;;;;;;8.90;79.67;98725.13;5002692;28;20498;-50
2023/12/28 07:03:33;;;;;;;13.30;2.80;;;;;;;8.93;79.91;98716.47;5004417;28;20050;-50
2023/12/28 07:06:02;;;;;;;7.68;2.67;;;;;;;8.93;80.29;98714.75;5005667;28;20585;-49
2023/12/28 07:08:29;;;;;;;12.65;2.67;;;;;;;8.93;79.93;98709.59;5002600;28;20128;-52
2023/12/28 07:10:59;;;;;;;10.43;2.15;;;;;;;8.93;79.82;98714.75;5006463;28;20100;-49
2023/12/28 07:13:26;;;;;;;14.25;2.40;;;;;;;8.95;79.78;98717.31;4998629;28;20049;-49
2023/12/28 07:15:54;;;;;;;6.40;2.17;;;;;;;8.87;79.50;98732.91;5006588;28;20053;-51
2023/12/28 07:18:25;;;;;;;14.43;3.15;;;;;;;8.87;80.17;98731.19;4999557;28;20046;-51
2023/12/28 07:20:52;;;;;;;5.10;1.88;;;;;;;8.87;79.56;98751.00;5002172;28;20049;-47
2023/12/28 07:23:19;;;;;;;6.20;1.67;;;;;;;8.88;80.09;98747.53;5002100;28;20046;-46
2023/12/28 07:25:45;;;;;;;4.82;2.25;;;;;;;8.87;79.21;98751.00;5001545;28;20555;-51
2023/12/28 07:28:12;;;;;;;12.48;2.60;;;;;;;8.94;79.88;98750.03;4991767;28;20046;-51
2023/12/28 07:30:41;;;;;;;9.85;2.83;;;;;;;8.94;80.04;98762.94;5008160;28;20053;-48
2023/12/28 07:33:08;;;;;;;6.43;1.05;;;;;;;8.99;79.75;98776.59;5010568;28;20403;-48
2023/12/28 07:35:34;;;;;;;3.75;2.40;;;;;;;8.98;79.44;98769.75;5009418;28;20054;-51
2023/12/28 07:38:02;;;;;;;7.05;2.20;;;;;;;8.96;80.00;98774.09;5005793;28;20042;-50
2023/12/28 07:40:29;;;;;;;12.95;2.15;;;;;;;9.01;79.74;98774.00;5008415;28;20057;-49
2023/12/28 07:42:56;;;;;;;6.13;2.28;;;;;;;8.98;80.03;98785.25;5005829;28;20042;-49
2023/12/28 07:45:24;;;;;;;10.77;2.83;;;;;;;9.00;80.17;98773.16;5007014;28;20053;-53
2023/12/28 07:47:51;;;;;;;13.68;2.75;;;;;;;9.02;80.08;98790.38;5002839;28;20584;-48
2023/12/28 07:50:19;;;;;;;7.47;2.53;;;;;;;9.03;79.86;98784.31;5003444;28;20050;-50
2023/12/28 07:52:48;;;;;;;5.97;2.58;;;;;;;8.95;80.54;98782.69;5005293;28;20038;-49
2023/12/28 07:55:15;;;;;;;8.98;3.40;;;;;;;8.98;80.24;98787.81;4999831;28;20073;-49
2023/12/28 07:57:42;;;;;;;15.50;3.97;;;;;;;8.99;79.77;98786.94;5006459;28;20097;-50
2023/12/28 08:00:10;;;;;;;8.73;2.33;;;;;;;9.00;79.93;98773.16;5002875;28;20050;-51
2023/12/28 08:02:37;;;;;;;9.18;3.15;;;;;;;9.03;79.91;98786.88;5003342;28;20046;-53
2023/12/28 08:05:05;;;;;;;15.30;3.20;;;;;;;9.03;80.15;98792.06;5001557;28;20141;-52
2023/12/28 08:07:31;;;;;;;14.02;2.67;;;;;;;8.99;80.20;98804.19;5003107;28;20054;-48
2023/12/28 08:09:58;;;;;;;12.07;2.47;;;;;;;9.03;80.23;98798.09;5002951;28;20096;-51
2023/12/28 08:12:27;;;;;;;15.70;2.63;;;;;;;9.09;79.89;98805.72;5009478;28;20050;-49
2023/12/28 08:14:55;;;;;;;13.90;3.13;;;;;;;9.10;80.03;98804.00;5002616;28;20058;-52
2023/12/28 08:17:22;;;;;;;13.88;2.28;;;;;;;9.09;79.99;98812.63;4990747;28;20407;-49
2023/12/28 08:19:48;;;;;;;13.27;2.45;;;;;;;9.12;79.91;98817.75;4993155;28;20050;-49
2023/12/28 08:22:15;;;;;;;7.43;1.95;;;;;;;9.08;80.44;98821.25;5007861;28;20447;-48
2023/12/28 08:24:42;;;;;;;22.60;4.25;;;;;;;9.13;80.24;98827.19;5007055;28;20053;-51
2023/12/28 08:27:10;;;;;;;19.23;2.25;;;;;;;9.14;80.49;98826.31;5007586;28;20438;-49
2023/12/28 08:29:37;;;;;;;14.73;3.33;;;;;;;9.15;79.91;98819.44;5008060;28;20503;-53
2023/12/28 08:32:03;;;;;;;9.90;3.40;;;;;;;9.07;80.75;98806.63;4999632;28;20054;-52
2023/12/28 08:34:30;;;;;;;11.73;2.80;;;;;;;9.14;79.93;98803.06;5006362;28;20053;-51
2023/12/28 08:36:57;;;;;;;15.43;3.08;;;;;;;9.13;80.39;98785.88;5008214;28;20049;-53
2023/12/28 08:39:24;;;;;;;11.65;2.35;;;;;;;9.13;80.34;98809.94;5005270;28;20061;-49
2023/12/28 08:41:51;;;;;;;14.43;3.20;;;;;;;9.11;80.82;98828.94;5003455;28;20100;-53
2023/12/28 08:44:18;;;;;;;7.45;2.78;;;;;;;9.05;80.82;98816.16;5001242;28;20141;-51
2023/12/28 08:46:45;;;;;;;11.85;2.60;;;;;;;9.08;80.40;98796.28;5000020;28;20077;-52
2023/12/28 08:49:12;;;;;;;14.35;3.65;;;;;;;9.03;80.75;98821.34;5003944;28;20058;-53
2023/12/28 08:51:40;;;;;;;11.32;2.83;;;;;;;9.06;80.62;98823.00;4999271;28;20093;-48
2023/12/28 08:54:11;;;;;;;18.20;5.15;;;;;;;8.91;81.65;98840.44;5006023;28;20077;-50
2023/12/28 08:56:39;;;;;;;12.00;3.00;;;;;;;8.93;81.62;98823.22;5001277;28;20045;-52
2023/12/28 08:59:06;;;;;;;22.83;3.70;;;;;;;9.00;81.56;98840.31;5002478;28;20049;-49
2023/12/28 09:01:33;;;;;;;13.60;4.18;;;;;;;9.02;81.22;98867.84;5006648;28;20057;-50
2023/12/28 09:03:59;;;;;;;7.65;2.97;;;;;;;8.95;81.41;98875.66;5006546;28;20553;-50
2023/12/28 09:06:27;;;;;;;6.45;3.53;;;;;;;8.85;80.71;98866.38;5004739;28;20042;-52
2023/12/28 09:08:56;;;;;;;9.48;4.43;;;;;;;8.73;80.04;98868.25;5006605;28;20133;-50
2023/12/28 09:11:23;;;;;;;2.63;2.42;;;;;;;8.59;80.33;98860.72;5001043;28;20053;-51
2023/12/28 09:13:49;;;;;;;3.60;2.28;;;;;;;8.60;80.43;98846.06;4994858;28;20056;-51
2023/12/28 09:16:16;;;;;;;3.20;2.28;;;;;;;8.57;80.20;98841.78;4996217;28;20057;-47
2023/12/28 09:18:43;;;;;;;6.38;1.98;;;;;;;8.57;80.75;98851.25;4993378;28;20060;-51
2023/12/28 09:21:10;;;;;;;3.35;2.80;;;;;;;8.59;80.21;98854.69;4994558;28;20056;-51
2023/12/28 09:23:40;;;;;;;3.88;1.50;;;;;;;8.57;80.40;98861.59;4995498;28;20053;-52
2023/12/28 09:26:06;;;;;;;2.88;1.70;;;;;;;8.61;80.39;98863.25;4998365;28;20046;-49
2023/12/28 09:28:34;;;;;;;7.93;2.58;;;;;;;8.61;79.76;98852.91;4999025;28;20062;-49
2023/12/28 09:31:01;;;;;;;2.20;1.95;;;;;;;8.57;80.00;98866.75;4984719;28;20046;-46
2023/12/28 09:33:29;;;;;;;3.17;0.70;;;;;;;8.61;79.61;98870.97;4995003;28;20428;-51
2023/12/28 09:35:59;;;;;;;2.58;1.63;;;;;;;8.62;79.79;98864.97;4993970;28;20121;-53
2023/12/28 09:38:28;;;;;;;6.45;1.52;;;;;;;8.64;79.88;98859.78;4995088;28;20067;-49
2023/12/28 09:40:57;;;;;;;4.82;0.85;;;;;;;8.62;79.51;98864.97;4992514;28;20291;-52
2023/12/28 09:43:25;;;;;;;5.13;1.90;;;;;;;8.63;79.62;98856.34;4993605;28;20054;-53
2023/12/28 09:45:53;;;;;;;2.08;1.52;;;;;;;8.61;79.88;98858.09;4980160;28;20042;-48
2023/12/28 09:48:21;;;;;;;5.07;1.65;;;;;;;8.60;79.92;98856.38;5004744;28;20038;-49
2023/12/28 09:50:54;;;;;;;5.70;2.90;;;;;;;8.61;79.88;98855.50;5008035;28;20042;-48
2023/12/28 09:53:22;;;;;;;5.28;1.60;;;;;;;8.61;79.34;98847.75;5006651;28;20157;-53
2023/12/28 09:55:51;;;;;;;10.85;2.65;;;;;;;8.63;79.63;98846.03;5007347;28;20046;-53
2023/12/28 09:58:20;;;;;;;8.68;3.83;;;;;;;8.68;79.73;98844.22;5011178;28;20042;-51
2023/12/28 10:00:49;;;;;;;2.88;1.50;;;;;;;8.70;80.24;98847.66;5009580;28;20115;-49
2023/12/28 10:03:17;;;;;;;10.25;1.70;;;;;;;8.79;79.80;98840.63;5007134;28;20049;-51
2023/12/28 10:05:45;;;;;;;11.98;2.40;;;;;;;8.89;80.43;98847.38;5000466;28;20118;-53
2023/12/28 10:08:14;;;;;;;6.75;2.25;;;;;;;9.06;80.21;98833.34;5007224;28;20519;-53
2023/12/28 10:10:42;;;;;;;12.52;3.08;;;;;;;9.25;79.92;98837.31;5006743;28;20157;-50
2023/12/28 10:13:11;;;;;;;8.27;2.28;;;;;;;9.49;80.27;98840.34;5007257;28;20569;-51
2023/12/28 10:15:38;;;;;;;9.30;1.70;;;;;;;9.68;79.40;98842.63;4994294;28;20050;-55
2023/12/28 10:18:05;;;;;;;14.10;2.78;;;;;;;9.98;79.89;98840.31;5004175;28;20161;-48
2023/12/28 10:20:32;;;;;;;12.15;2.35;;;;;;;10.18;78.48;98839.06;5001424;28;20133;-52
2023/12/28 10:23:00;;;;;;;18.45;2.67;;;;;;;10.26;77.95;98825.97;5005487;28;20135;-53
2023/12/28 10:25:30;;;;;;;9.60;3.20;;;;;;;10.21;78.14;98822.63;4998680;28;20128;-52
2023/12/28 10:27:57;;;;;;;9.55;2.60;;;;;;;10.02;77.95;98810.94;5007017;28;20050;-49
2023/12/28 10:30:23;;;;;;;12.55;3.22;;;;;;;10.01;77.69;98822.16;5005193;28;20046;-52
2023/12/28 10:32:51;;;;;;;17.67;4.28;;;;;;;10.02;77.68;98810.94;5001825;28;20050;-50
2023/12/28 10:35:19;;;;;;;14.18;3.67;;;;;;;9.98;76.83;98804.13;5004009;28;20053;-54
2023/12/28 10:37:49;;;;;;;17.10;3.10;;;;;;;9.97;77.34;98801.56;5007092;28;20137;-53
2023/12/28 10:40:15;;;;;;;7.32;2.25;;;;;;;10.02;76.82;98804.88;5007432;28;20054;-50
2023/12/28 10:42:54;;;;;;;11.88;2.17;;;;;;;10.00;77.58;98804.09;5001338;28;20147;-46
2023/12/28 10:45:25;;;;;;;20.35;2.35;;;;;;;10.11;77.39;98798.69;5003840;28;20045;-53
2023/12/28 10:48:10;;;;;;;11.23;2.60;;;;;;;10.18;76.97;98800.25;5002424;28;20116;-51
2023/12/28 10:50:46;;;;;;;22.55;3.17;;;;;;;10.27;76.76;98789.69;5003337;28;20046;-53
2023/12/28 10:53:40;;;;;;;13.38;3.42;;;;;;;10.25;76.77;98800.97;4998007;28;20127;-50
2023/12/28 10:59:10;;;;;;;10.25;2.80;;;;;;;10.36;76.33;98787.78;5091618;27;20397;-45
2023/12/28 11:01:41;;;;;;;8.23;2.95;;;;;;;10.38;77.01;98791.22;5047807;28;20584;-51
2023/12/28 11:04:21;;;;;;;8.63;3.60;;;;;;;10.36;75.60;98792.97;5063187;28;20067;-51
2023/12/28 11:06:49;;;;;;;12.90;1.42;;;;;;;10.36;76.19;98782.63;5063448;28;20044;-49
2023/12/28 11:09:18;;;;;;;4.25;1.38;;;;;;;10.36;75.70;98780.03;5052036;28;20118;-52
2023/12/28 11:11:46;;;;;;;10.10;1.33;;;;;;;10.32;76.21;98774.06;5059453;28;20075;-49
2023/12/28 11:14:13;;;;;;;12.00;2.17;;;;;;;10.34;75.47;98774.03;5056854;28;20040;-49
2023/12/28 11:16:41;;;;;;;9.65;1.75;;;;;;;10.31;75.99;98763.75;5055570;28;20072;-46
2023/12/28 11:19:09;;;;;;;6.43;1.60;;;;;;;10.29;75.96;98754.31;5054125;28;20053;-49
2023/12/28 11:21:38;;;;;;;9.77;1.50;;;;;;;10.31;74.89;98753.41;5057027;28;20073;-51
2023/12/28 11:24:07;;;;;;;14.90;1.55;;;;;;;10.32;75.56;98749.91;5053925;28;20572;-47
2023/12/28 11:26:33;;;;;;;9.07;1.15;;;;;;;10.27;75.03;98737.94;5054569;28;20065;-49
2023/12/28 11:29:02;;;;;;;10.05;1.48;;;;;;;10.24;74.77;98738.00;5063643;28;20544;-49
2023/12/28 11:31:33;;;;;;;9.38;0.90;;;;;;;10.20;75.56;98731.19;5051768;28;20049;-53
2023/12/28 11:34:01;;;;;;;7.63;1.13;;;;;;;10.18;74.90;98735.56;5062541;28;20049;-48
2023/12/28 11:36:42;;;;;;;13.95;1.35;;;;;;;10.22;75.26;98728.56;5051900;28;20049;-45
2023/12/28 11:39:11;;;;;;;4.57;1.25;;;;;;;10.24;75.53;98730.25;5058279;28;20041;-49
2023/12/28 11:41:38;;;;;;;9.30;1.50;;;;;;;10.22;74.81;98726.84;5048855;28;20049;-48
2023/12/28 11:44:05;;;;;;;15.45;1.63;;;;;;;10.25;75.52;98719.03;5041818;28;20041;-51
2023/12/28 11:46:32;;;;;;;11.73;1.55;;;;;;;10.19;74.60;98701.03;5041270;28;20045;-49
2023/12/28 11:49:05;;;;;;;8.77;1.08;;;;;;;10.19;75.28;98721.75;5041969;28;20121;-50